Time;durP1;ratioP1;P1;durP2;ratioP2;P2;SDS_P1;SDS_P2;PMS_P1;PMS_P2;Temp;Humidity;BMP_temperature;BMP_pressure;BME280_temperature;BME280_humidity;BME280_pressure;Samples;Min_cycle;Max_cycle;Signal;HPM_P1;HPM_P2
2022/08/17 00:00:59;;;;;;;;;;;;;;;20.36;100.00;99317.16;3059462;19;1369;-54
2022/08/17 00:02:03;;;;;;;;;;;;;;;20.36;100.00;99317.16;3059833;19;1649;-55
2022/08/17 00:03:24;;;;;;;;;;;;;;;20.33;100.00;99316.63;3059854;19;912;-50
2022/08/17 00:04:26;;;;;;;;;;;;;;;20.32;100.00;99315.78;3059654;19;1213;-55
2022/08/17 00:05:35;;;;;;;;;;;;;;;20.31;100.00;99305.97;3059910;19;1298;-54
2022/08/17 00:06:39;;;;;;;;;;;;;;;20.31;100.00;99308.69;3059852;19;963;-55
2022/08/17 00:07:41;;;;;;;;;;;;;;;20.31;100.00;99303.28;3059692;19;929;-55
2022/08/17 00:08:53;;;;;;;;;;;;;;;20.30;100.00;99307.00;3059643;19;929;-55
2022/08/17 00:09:56;;;;;;;;;;;;;;;20.30;100.00;99307.00;3059020;19;928;-51
2022/08/17 00:11:00;;;;;;;;;;;;;;;20.31;100.00;99303.28;3058654;19;1630;-52
2022/08/17 00:12:02;;;;;;;;;;;;;;;20.32;100.00;99306.81;3059853;19;908;-54
2022/08/17 00:13:32;;;;;;;;;;;;;;;20.32;100.00;99299.53;3059623;19;940;-53
2022/08/17 00:14:34;;;;;;;;;;;;;;;20.34;100.00;99292.06;3059247;19;1865;-53
2022/08/17 00:15:39;;;;;;;;;;;;;;;20.36;100.00;99298.19;3059770;19;968;-52
2022/08/17 00:16:43;;;;;;;;;;;;;;;20.38;100.00;99298.84;3059457;19;1046;-52
2022/08/17 00:18:00;;;;;;;;;;;;;;;20.39;100.00;99286.97;3059611;19;1361;-53
2022/08/17 00:19:03;;;;;;;;;;;;;;;20.44;100.00;99283.69;3059559;19;1021;-54
2022/08/17 00:20:12;;;;;;;;;;;;;;;20.46;100.00;99285.19;3059302;19;1055;-52
2022/08/17 00:21:16;;;;;;;;;;;;;;;20.52;100.00;99289.03;3059810;19;951;-57
2022/08/17 00:22:28;;;;;;;;;;;;;;;20.48;100.00;99271.47;3059646;19;884;-56
2022/08/17 00:23:36;;;;;;;;;;;;;;;20.60;100.00;99282.66;3059197;19;982;-56
2022/08/17 00:24:41;;;;;;;;;;;;;;;20.63;100.00;99285.84;3059525;19;1592;-54
2022/08/17 00:25:44;;;;;;;;;;;;;;;20.66;100.00;99281.91;3059558;19;841;-49
2022/08/17 00:26:48;;;;;;;;;;;;;;;20.72;100.00;99289.28;3059254;19;955;-52
2022/08/17 00:27:50;;;;;;;;;;;;;;;20.74;100.00;99282.66;3060010;19;841;-54
2022/08/17 00:28:57;;;;;;;;;;;;;;;20.79;100.00;99288.34;3060634;19;1821;-54
2022/08/17 00:29:59;;;;;;;;;;;;;;;20.83;100.00;99283.38;3058574;19;821;-52
2022/08/17 00:31:03;;;;;;;;;;;;;;;20.88;100.00;99294.50;3057439;19;906;-57
2022/08/17 00:32:05;;;;;;;;;;;;;;;20.90;100.00;99295.13;3058006;19;848;-52
2022/08/17 00:33:30;;;;;;;;;;;;;;;20.94;100.00;99292.91;3058856;19;968;-57
2022/08/17 00:34:33;;;;;;;;;;;;;;;20.97;100.00;99304.22;3059584;19;1011;-54
2022/08/17 00:35:37;;;;;;;;;;;;;;;20.99;100.00;99304.88;3058348;19;1900;-52
2022/08/17 00:37:00;;;;;;;;;;;;;;;20.99;100.00;99313.00;3059549;19;1035;-54
2022/08/17 00:38:03;;;;;;;;;;;;;;;21.03;100.00;99322.44;3059169;19;952;-54
2022/08/17 00:39:09;;;;;;;;;;;;;;;21.03;100.00;99330.56;3059472;19;1035;-55
2022/08/17 00:40:12;;;;;;;;;;;;;;;21.04;100.00;99331.41;3059600;19;945;-50
2022/08/17 00:41:18;;;;;;;;;;;;;;;21.03;100.00;99340.56;3059283;19;1016;-54
2022/08/17 00:42:20;;;;;;;;;;;;;;;21.05;100.00;99346.66;3059571;19;860;-55
2022/08/17 00:43:36;;;;;;;;;;;;;;;21.02;100.00;99337.03;3058925;19;1673;-55
2022/08/17 00:44:38;;;;;;;;;;;;;;;21.02;100.00;99347.88;3059408;19;940;-50
2022/08/17 00:45:42;;;;;;;;;;;;;;;21.02;100.00;99349.75;3058937;19;916;-52
2022/08/17 00:46:46;;;;;;;;;;;;;;;21.01;100.00;99348.09;3056899;19;1269;-55
2022/08/17 00:47:51;;;;;;;;;;;;;;;20.99;100.00;99345.56;3058246;19;1707;-53
2022/08/17 00:48:52;;;;;;;;;;;;;;;20.97;100.00;99352.19;3059568;19;849;-54
2022/08/17 00:49:57;;;;;;;;;;;;;;;20.94;100.00;99358.84;3058952;19;936;-54
2022/08/17 00:51:14;;;;;;;;;;;;;;;20.93;100.00;99362.56;3059118;19;976;-53
2022/08/17 00:52:19;;;;;;;;;;;;;;;20.90;100.00;99359.38;3059061;19;1110;-49
2022/08/17 00:53:23;;;;;;;;;;;;;;;20.86;100.00;99356.22;3058345;19;914;-53
2022/08/17 00:54:25;;;;;;;;;;;;;;;20.85;100.00;99359.97;3058230;19;903;-51
2022/08/17 00:55:30;;;;;;;;;;;;;;;20.82;100.00;99350.34;3057799;19;1849;-52
2022/08/17 00:56:33;;;;;;;;;;;;;;;20.81;100.00;99359.50;3058000;19;992;-52
2022/08/17 00:57:42;;;;;;;;;;;;;;;20.79;100.00;99358.00;3058271;19;1043;-54
2022/08/17 00:58:46;;;;;;;;;;;;;;;20.77;100.00;99357.38;3058065;19;934;-54
2022/08/17 00:59:49;;;;;;;;;;;;;;;20.76;100.00;99355.69;3058747;19;984;-55
2022/08/17 01:01:07;;;;;;;;;;;;;;;20.74;100.00;99353.16;3058631;19;1237;-51
2022/08/17 01:02:09;;;;;;;;;;;;;;;20.71;100.00;99352.66;3058271;19;1011;-53
2022/08/17 01:03:20;;;;;;;;;;;;;;;20.69;100.00;99354.72;3058351;19;1566;-54
2022/08/17 01:04:22;;;;;;;;;;;;;;;20.66;100.00;99352.38;3059010;19;1094;-53
2022/08/17 01:05:27;;;;;;;;;;;;;;;20.64;100.00;99351.75;3058068;19;1209;-57
2022/08/17 01:06:29;;;;;;;;;;;;;;;20.59;100.00;99351.47;3058295;19;896;-52
2022/08/17 01:07:34;;;;;;;;;;;;;;;20.59;100.00;99349.59;3058775;19;968;-54
2022/08/17 01:08:39;;;;;;;;;;;;;;;20.56;100.00;99344.53;3058890;19;881;-53
2022/08/17 01:09:44;;;;;;;;;;;;;;;20.54;100.00;99351.16;3059197;19;1694;-55
2022/08/17 01:10:46;;;;;;;;;;;;;;;20.51;100.00;99346.13;3057870;19;970;-51
2022/08/17 01:12:05;;;;;;;;;;;;;;;20.47;100.00;99341.06;3058423;19;1067;-57
2022/08/17 01:13:09;;;;;;;;;;;;;;;20.46;100.00;99339.41;3058146;19;1004;-51
2022/08/17 01:14:14;;;;;;;;;;;;;;;20.44;100.00;99336.03;3058107;19;1678;-55
2022/08/17 01:15:16;;;;;;;;;;;;;;;20.42;100.00;99338.06;3058858;19;972;-55
2022/08/17 01:16:23;;;;;;;;;;;;;;;20.41;100.00;99330.97;3058126;19;1854;-55
2022/08/17 01:17:26;;;;;;;;;;;;;;;20.39;100.00;99333.03;3058087;19;1344;-54
2022/08/17 01:18:30;;;;;;;;;;;;;;;20.38;100.00;99334.06;3058298;19;979;-57
2022/08/17 01:19:34;;;;;;;;;;;;;;;20.33;100.00;99328.31;3059165;19;847;-56
2022/08/17 01:20:40;;;;;;;;;;;;;;;20.32;100.00;99326.63;3057983;19;999;-56
2022/08/17 01:21:50;;;;;;;;;;;;;;;20.29;100.00;99332.41;3057908;19;1699;-56
2022/08/17 01:22:54;;;;;;;;;;;;;;;20.27;100.00;99330.94;3059137;19;983;-53
2022/08/17 01:23:56;;;;;;;;;;;;;;;20.25;100.00;99325.69;3059288;19;1017;-53
2022/08/17 01:25:02;;;;;;;;;;;;;;;20.23;100.00;99327.75;3058915;19;902;-53
2022/08/17 01:26:05;;;;;;;;;;;;;;;20.21;100.00;99326.25;3058904;19;935;-56
2022/08/17 01:27:10;;;;;;;;;;;;;;;20.19;100.00;99326.44;3058908;19;979;-53
2022/08/17 01:28:12;;;;;;;;;;;;;;;20.17;100.00;99319.50;3059135;19;896;-56
2022/08/17 01:29:36;;;;;;;;;;;;;;;20.16;100.00;99323.25;3058892;19;893;-53
2022/08/17 01:30:38;;;;;;;;;;;;;;;20.15;100.00;99314.28;3057939;19;1066;-54
2022/08/17 01:32:04;;;;;;;;;;;;;;;20.13;100.00;99324.47;3058094;19;916;-55
2022/08/17 01:33:10;;;;;;;;;;;;;;;20.12;100.00;99320.06;3058417;19;1218;-50
2022/08/17 01:34:15;;;;;;;;;;;;;;;20.11;100.00;99318.38;3058706;19;988;-53
2022/08/17 01:35:17;;;;;;;;;;;;;;;20.09;100.00;99315.84;3058433;19;1003;-52
2022/08/17 01:36:22;;;;;;;;;;;;;;;20.09;100.00;99306.88;3057121;19;1863;-52
2022/08/17 01:37:28;;;;;;;;;;;;;;;20.08;100.00;99305.22;3058944;19;927;-51
2022/08/17 01:38:33;;;;;;;;;;;;;;;20.07;100.00;99300.81;3058816;19;975;-54
2022/08/17 01:39:40;;;;;;;;;;;;;;;20.06;100.00;99299.13;3058572;19;944;-55
2022/08/17 01:40:47;;;;;;;;;;;;;;;20.05;100.00;99297.44;3057657;19;924;-56
2022/08/17 01:42:03;;;;;;;;;;;;;;;20.03;100.00;99299.53;3057657;19;1113;-53
2022/08/17 01:43:12;;;;;;;;;;;;;;;20.01;100.00;99298.84;3057747;19;881;-54
2022/08/17 01:44:14;;;;;;;;;;;;;;;20.01;100.00;99296.16;3057871;19;881;-55
2022/08/17 01:45:23;;;;;;;;;;;;;;;20.00;100.00;99297.16;3057827;19;1735;-54
2022/08/17 01:46:28;;;;;;;;;;;;;;;19.98;100.00;99291.94;3057722;19;900;-52
2022/08/17 01:47:32;;;;;;;;;;;;;;;19.97;100.00;99294.81;3058623;19;989;-54
2022/08/17 01:48:37;;;;;;;;;;;;;;;19.97;100.00;99290.25;3058386;19;965;-52
2022/08/17 01:49:42;;;;;;;;;;;;;;;19.96;100.00;99295.84;3058463;19;906;-54
2022/08/17 01:50:44;;;;;;;;;;;;;;;19.96;100.00;99293.97;3057871;19;944;-54
2022/08/17 01:51:49;;;;;;;;;;;;;;;19.96;100.00;99293.13;3058801;19;850;-54
2022/08/17 01:52:52;;;;;;;;;;;;;;;19.97;100.00;99297.53;3057457;19;995;-50
2022/08/17 01:53:58;;;;;;;;;;;;;;;19.98;100.00;99291.09;3057555;19;1619;-51
2022/08/17 01:55:00;;;;;;;;;;;;;;;19.97;100.00;99294.81;3057333;19;972;-56
2022/08/17 01:56:09;;;;;;;;;;;;;;;19.98;100.00;99291.94;3057494;19;1866;-52
2022/08/17 01:57:12;;;;;;;;;;;;;;;20.00;100.00;99291.75;3057543;19;1019;-52
2022/08/17 01:58:16;;;;;;;;;;;;;;;19.98;100.00;99291.94;3057626;19;928;-55
2022/08/17 01:59:18;;;;;;;;;;;;;;;19.99;100.00;99290.06;3058552;19;965;-52
2022/08/17 02:00:23;;;;;;;;;;;;;;;19.98;100.00;99285.69;3058201;19;976;-55
2022/08/17 02:01:27;;;;;;;;;;;;;;;19.98;100.00;99285.69;3057611;19;1285;-51
2022/08/17 02:02:32;;;;;;;;;;;;;;;19.97;100.00;99284.00;3058403;19;904;-56
2022/08/17 02:03:34;;;;;;;;;;;;;;;19.95;100.00;99291.44;3058599;19;902;-53
2022/08/17 02:04:38;;;;;;;;;;;;;;;19.93;100.00;99293.50;3058330;19;912;-55
2022/08/17 02:05:40;;;;;;;;;;;;;;;19.89;100.00;99297.63;3058388;19;897;-52
2022/08/17 02:06:45;;;;;;;;;;;;;;;19.86;100.00;99301.53;3058426;19;928;-53
2022/08/17 02:07:55;;;;;;;;;;;;;;;19.82;100.00;99304.75;3058475;19;845;-53
2022/08/17 02:09:04;;;;;;;;;;;;;;;19.80;100.00;99309.53;3058252;19;940;-52
2022/08/17 02:10:07;;;;;;;;;;;;;;;19.78;100.00;99310.56;3058598;19;971;-53
2022/08/17 02:11:23;;;;;;;;;;;;;;;19.73;100.00;99304.00;3057927;19;1022;-54
2022/08/17 02:12:25;;;;;;;;;;;;;;;19.70;100.00;99305.19;3058495;19;964;-56
2022/08/17 02:13:43;;;;;;;;;;;;;;;19.67;100.00;99304.75;3057843;19;1346;-52
2022/08/17 02:14:45;;;;;;;;;;;;;;;19.66;100.00;99298.50;3058286;19;947;-55
2022/08/17 02:15:49;;;;;;;;;;;;;;;19.64;100.00;99295.13;3057841;19;1047;-54
2022/08/17 02:16:51;;;;;;;;;;;;;;;19.64;100.00;99299.69;3057715;19;1872;-54
2022/08/17 02:17:56;;;;;;;;;;;;;;;19.62;100.00;99297.16;3058039;19;975;-52
2022/08/17 02:19:00;;;;;;;;;;;;;;;19.62;100.00;99294.44;3058533;19;987;-54
2022/08/17 02:20:05;;;;;;;;;;;;;;;19.60;100.00;99296.50;3057991;19;986;-55
2022/08/17 02:21:07;;;;;;;;;;;;;;;19.60;100.00;99296.50;3058123;19;973;-52
2022/08/17 02:22:11;;;;;;;;;;;;;;;19.58;100.00;99295.81;3057683;19;944;-56
2022/08/17 02:23:13;;;;;;;;;;;;;;;19.57;100.00;99293.28;3058501;19;920;-50
2022/08/17 02:24:19;;;;;;;;;;;;;;;19.56;100.00;99297.88;3057833;19;1055;-50
2022/08/17 02:25:42;;;;;;;;;;;;;;;19.54;100.00;99294.53;3057828;19;893;-55
2022/08/17 02:26:47;;;;;;;;;;;;;;;19.45;100.00;99279.31;3057098;19;1670;-53
2022/08/17 02:27:49;;;;;;;;;;;;;;;19.52;100.00;99296.56;3057142;19;920;-56
2022/08/17 02:28:53;;;;;;;;;;;;;;;19.51;100.00;99294.88;3057947;19;1682;-55
2022/08/17 02:29:55;;;;;;;;;;;;;;;19.49;100.00;99290.66;3057963;19;853;-57
2022/08/17 02:31:04;;;;;;;;;;;;;;;19.48;100.00;99299.75;3057801;19;906;-52
2022/08/17 02:32:07;;;;;;;;;;;;;;;19.47;100.00;99289.97;3056998;19;960;-52
2022/08/17 02:33:12;;;;;;;;;;;;;;;19.48;100.00;99288.94;3056944;19;1331;-54
2022/08/17 02:34:14;;;;;;;;;;;;;;;19.46;100.00;99283.72;3056759;19;1030;-51
2022/08/17 02:35:20;;;;;;;;;;;;;;;19.46;100.00;99296.41;3056579;19;1689;-53
2022/08/17 02:36:22;;;;;;;;;;;;;;;19.42;100.00;99295.94;3057024;19;865;-53
2022/08/17 02:37:31;;;;;;;;;;;;;;;19.42;100.00;99295.94;3058054;19;952;-56
2022/08/17 02:38:33;;;;;;;;;;;;;;;19.41;100.00;99299.66;3057787;19;955;-51
2022/08/17 02:39:37;;;;;;;;;;;;;;;19.40;100.00;99297.97;3057415;19;1660;-53
2022/08/17 02:40:39;;;;;;;;;;;;;;;19.39;100.00;99293.59;3057572;19;968;-55
2022/08/17 02:41:43;;;;;;;;;;;;;;;19.39;100.00;99297.13;3057951;19;900;-54
2022/08/17 02:42:45;;;;;;;;;;;;;;;19.39;100.00;99293.59;3057491;19;1022;-55
2022/08/17 02:43:50;;;;;;;;;;;;;;;19.38;100.00;99289.19;3057915;19;952;-53
2022/08/17 02:44:52;;;;;;;;;;;;;;;19.38;100.00;99291.91;3057687;19;888;-54
2022/08/17 02:45:56;;;;;;;;;;;;;;;19.37;100.00;99293.75;3057864;19;967;-51
2022/08/17 02:46:58;;;;;;;;;;;;;;;19.37;100.00;99290.22;3057353;19;924;-52
2022/08/17 02:48:03;;;;;;;;;;;;;;;19.37;100.00;99288.34;3057686;19;1708;-54
2022/08/17 02:49:05;;;;;;;;;;;;;;;19.36;100.00;99292.06;3056496;19;881;-55
2022/08/17 02:50:11;;;;;;;;;;;;;;;19.36;100.00;99291.22;3056564;19;1632;-52
2022/08/17 02:51:13;;;;;;;;;;;;;;;19.35;100.00;99297.66;3057441;19;995;-56
2022/08/17 02:52:17;;;;;;;;;;;;;;;19.33;100.00;99297.00;3057896;19;884;-54
2022/08/17 02:53:39;;;;;;;;;;;;;;;19.34;100.00;99304.09;3057792;19;919;-54
2022/08/17 02:54:44;;;;;;;;;;;;;;;19.34;100.00;99304.09;3057598;19;917;-54
2022/08/17 02:55:45;;;;;;;;;;;;;;;19.32;100.00;99301.56;3057654;19;999;-51
2022/08/17 02:56:50;;;;;;;;;;;;;;;19.32;100.00;99296.16;3057148;19;1853;-56
2022/08/17 02:57:52;;;;;;;;;;;;;;;19.33;100.00;99303.25;3057905;19;866;-55
2022/08/17 02:58:57;;;;;;;;;;;;;;;19.33;100.00;99291.56;3057402;19;1015;-54
2022/08/17 02:59:59;;;;;;;;;;;;;;;19.33;100.00;99286.16;3057609;19;976;-52
2022/08/17 03:01:04;;;;;;;;;;;;;;;19.33;100.00;99297.81;3056560;19;1642;-52
2022/08/17 03:02:07;;;;;;;;;;;;;;;19.33;100.00;99288.88;3057554;19;1214;-53
2022/08/17 03:03:12;;;;;;;;;;;;;;;19.33;100.00;99297.00;3057089;19;885;-49
2022/08/17 03:04:14;;;;;;;;;;;;;;;19.33;100.00;99297.00;3056749;19;980;-54
2022/08/17 03:05:19;;;;;;;;;;;;;;;19.33;100.00;99297.00;3056346;19;933;-56
2022/08/17 03:06:21;;;;;;;;;;;;;;;19.33;100.00;99286.16;3057646;19;837;-50
2022/08/17 03:07:26;;;;;;;;;;;;;;;19.35;100.00;99294.94;3057425;19;869;-54
2022/08/17 03:08:28;;;;;;;;;;;;;;;19.35;100.00;99278.72;3057399;19;786;-53
2022/08/17 03:09:32;;;;;;;;;;;;;;;19.37;100.00;99288.34;3056156;19;1624;-56
2022/08/17 03:10:34;;;;;;;;;;;;;;;19.40;100.00;99292.56;3057142;19;1000;-58
2022/08/17 03:11:38;;;;;;;;;;;;;;;19.40;100.00;99281.75;3057032;19;1220;-54
2022/08/17 03:12:42;;;;;;;;;;;;;;;19.42;100.00;99282.41;3057595;19;1018;-51
2022/08/17 03:13:46;;;;;;;;;;;;;;;19.43;100.00;99281.38;3057147;19;936;-55
2022/08/17 03:14:48;;;;;;;;;;;;;;;19.44;100.00;99283.06;3057502;19;1054;-53
2022/08/17 03:15:53;;;;;;;;;;;;;;;19.44;100.00;99283.06;3057200;19;1007;-55
2022/08/17 03:16:55;;;;;;;;;;;;;;;19.45;100.00;99284.72;3057600;19;876;-54
2022/08/17 03:17:59;;;;;;;;;;;;;;;19.44;100.00;99288.47;3056292;19;1830;-53
2022/08/17 03:19:01;;;;;;;;;;;;;;;19.43;100.00;99294.91;3057388;19;835;-53
2022/08/17 03:20:06;;;;;;;;;;;;;;;19.43;100.00;99290.34;3057109;19;987;-54
2022/08/17 03:21:18;;;;;;;;;;;;;;;;;;;;;
2022/08/17 03:22:16;;;;;;;;;;;;;;;19.45;100.00;99284.72;3055489;19;1835;-50
2022/08/17 03:23:39;;;;;;;;;;;;;;;19.46;100.00;99286.41;3057229;19;880;-49
2022/08/17 03:24:44;;;;;;;;;;;;;;;19.47;100.00;99296.22;3056725;19;952;-52
2022/08/17 03:25:48;;;;;;;;;;;;;;;19.47;100.00;99288.09;3057180;19;931;-53
2022/08/17 03:26:56;;;;;;;;;;;;;;;19.48;100.00;99295.19;3057040;19;785;-56
2022/08/17 03:27:58;;;;;;;;;;;;;;;19.48;100.00;99295.19;3057179;19;964;-51
2022/08/17 03:29:02;;;;;;;;;;;;;;;19.47;100.00;99287.25;3056660;19;1652;-53
2022/08/17 03:30:04;;;;;;;;;;;;;;;19.49;100.00;99298.78;3057281;19;888;-55
2022/08/17 03:31:09;;;;;;;;;;;;;;;19.50;100.00;99292.34;3056568;19;1667;-52
2022/08/17 03:32:12;;;;;;;;;;;;;;;19.49;100.00;99294.22;3057102;19;952;-55
2022/08/17 03:33:16;;;;;;;;;;;;;;;19.51;100.00;99300.28;3056839;19;960;-56
2022/08/17 03:34:18;;;;;;;;;;;;;;;19.53;100.00;99298.25;3057221;19;1194;-56
2022/08/17 03:35:23;;;;;;;;;;;;;;;19.55;100.00;99304.31;3056662;19;991;-50
2022/08/17 03:36:28;;;;;;;;;;;;;;;19.56;100.00;99303.28;3057363;19;861;-50
2022/08/17 03:37:31;;;;;;;;;;;;;;;19.58;100.00;99303.94;3056730;19;1859;-52
2022/08/17 03:38:36;;;;;;;;;;;;;;;19.59;100.00;99308.34;3056656;19;1732;-55
2022/08/17 03:39:40;;;;;;;;;;;;;;;19.61;100.00;99310.88;3057794;19;980;-55
2022/08/17 03:40:45;;;;;;;;;;;;;;;19.62;100.00;99310.69;3057005;19;896;-50
2022/08/17 03:42:06;;;;;;;;;;;;;;;19.65;100.00;99313.03;3056099;19;877;-51
2022/08/17 03:43:11;;;;;;;;;;;;;;;19.68;100.00;99314.53;3055966;19;1116;-55
2022/08/17 03:44:12;;;;;;;;;;;;;;;19.72;100.00;99308.56;3056085;19;980;-52
2022/08/17 03:56:40;;;;;;;;;;;;;;;19.76;100.00;99309.06;3056536;19;1767;-53
2022/08/17 03:57:12;;;;;;;;;;;;;;;20.24;100.00;99328.59;3056865;19;1242;-51
2022/08/17 03:58:14;;;;;;;;;;;;;;;20.30;100.00;99334.09;3056074;19;1854;-52
2022/08/17 03:59:19;;;;;;;;;;;;;;;20.34;100.00;99335.41;3056566;19;929;-53
2022/08/17 04:00:23;;;;;;;;;;;;;;;20.41;100.00;99347.22;3055523;19;1197;-54
2022/08/17 04:01:28;;;;;;;;;;;;;;;20.48;100.00;99347.34;3055781;19;862;-55
2022/08/17 04:02:33;;;;;;;;;;;;;;;20.54;100.00;99340.31;3056811;19;956;-53
2022/08/17 04:03:35;;;;;;;;;;;;;;;20.61;100.00;99349.41;3056937;19;992;-54
2022/08/17 04:04:40;;;;;;;;;;;;;;;20.68;100.00;99350.34;3056048;19;1310;-53
2022/08/17 04:05:42;;;;;;;;;;;;;;;20.74;100.00;99358.56;3058331;19;1202;-54
2022/08/17 04:06:46;;;;;;;;;;;;;;;20.82;100.00;99363.91;3056411;19;1067;-55
2022/08/17 04:07:48;;;;;;;;;;;;;;;20.84;100.00;99358.28;3056775;19;857;-53
2022/08/17 04:08:53;;;;;;;;;;;;;;;20.96;100.00;99370.34;3055892;19;1773;-52
2022/08/17 04:09:56;;;;;;;;;;;;;;;21.03;100.00;99378.56;3057312;19;1756;-51
2022/08/17 04:11:01;;;;;;;;;;;;;;;21.06;100.00;99381.75;3050342;19;1742;-53
2022/08/17 04:12:03;;;;;;;;;;;;;;;21.08;100.00;99398.66;3028837;19;1708;-52
2022/08/17 04:13:08;;;;;;;;;;;;;;;21.07;100.00;99407.84;3031569;19;1998;-51
2022/08/17 04:14:10;;;;;;;;;;;;;;;21.06;100.00;99422.44;3033748;19;1989;-52
2022/08/17 04:15:14;;;;;;;;;;;;;;;21.04;100.00;99426.34;3037002;19;1627;-53
2022/08/17 04:16:17;;;;;;;;;;;;;;;21.02;100.00;99425.69;3035418;19;2185;-51
2022/08/17 04:17:21;;;;;;;;;;;;;;;20.98;100.00;99430.69;3034402;19;1988;-49
2022/08/17 04:18:24;;;;;;;;;;;;;;;20.97;100.00;99439.00;3034617;19;1866;-50
2022/08/17 04:19:29;;;;;;;;;;;;;;;20.95;100.00;99447.31;3037013;19;1465;-51
2022/08/17 04:20:31;;;;;;;;;;;;;;;20.93;100.00;99443.94;3034915;19;2214;-53
2022/08/17 04:21:35;;;;;;;;;;;;;;;20.91;100.00;99446.00;3034090;19;2532;-53
2022/08/17 04:22:37;;;;;;;;;;;;;;;20.92;100.00;99446.84;3037827;19;1601;-53
2022/08/17 04:23:42;;;;;;;;;;;;;;;20.91;100.00;99446.00;3039627;19;1702;-54
2022/08/17 04:24:44;;;;;;;;;;;;;;;20.91;100.00;99454.13;3037572;19;1657;-52
2022/08/17 04:25:50;;;;;;;;;;;;;;;20.91;100.00;99451.41;3037656;19;1792;-54
2022/08/17 04:26:52;;;;;;;;;;;;;;;20.92;100.00;99447.69;3038716;19;1725;-51
2022/08/17 04:27:58;;;;;;;;;;;;;;;20.93;100.00;99449.38;3039195;19;1571;-52
2022/08/17 04:29:00;;;;;;;;;;;;;;;20.94;100.00;99447.50;3036815;19;1848;-54
2022/08/17 04:30:05;;;;;;;;;;;;;;;20.96;100.00;99448.16;3037217;19;1773;-53
2022/08/17 04:31:08;;;;;;;;;;;;;;;20.97;100.00;99455.25;3038736;19;1705;-51
2022/08/17 04:32:13;;;;;;;;;;;;;;;20.99;100.00;99454.06;3039578;19;1908;-55
2022/08/17 04:33:16;;;;;;;;;;;;;;;21.06;100.00;99452.28;3037482;19;1732;-51
2022/08/17 04:34:21;;;;;;;;;;;;;;;21.69;100.00;99460.84;3037349;19;1651;-52
2022/08/17 04:35:24;;;;;;;;;;;;;;;22.29;100.00;99474.06;3038273;19;1781;-52
2022/08/17 04:36:29;;;;;;;;;;;;;;;22.79;100.00;99496.72;3039455;19;1911;-51
2022/08/17 04:37:31;;;;;;;;;;;;;;;23.22;100.00;99524.66;3036838;19;1921;-53
2022/08/17 04:38:36;;;;;;;;;;;;;;;23.63;100.00;99554.69;3036935;19;1870;-52
2022/08/17 04:39:38;;;;;;;;;;;;;;;24.00;100.00;99595.13;3040630;19;1603;-54
2022/08/17 04:42:06;;;;;;;;;;;;;;;24.16;100.00;99675.69;3038122;19;1855;-53
2022/08/17 04:43:15;;;;;;;;;;;;;;;23.79;100.00;99679.66;3038022;19;1744;-53
2022/08/17 04:44:22;;;;;;;;;;;;;;;23.58;100.00;99683.31;3036430;19;1695;-50
2022/08/17 04:45:39;;;;;;;;;;;;;;;24.30;100.00;99688.41;3037634;19;1913;-52
2022/08/17 04:46:58;;;;;;;;;;;;;;;24.83;100.00;99709.59;3037013;19;1610;-53
2022/08/17 04:48:00;;;;;;;;;;;;;;;25.08;100.00;99716.19;3039798;19;1984;-52
2022/08/17 04:49:06;;;;;;;;;;;;;;;25.44;100.00;99746.72;3037342;19;1837;-51
2022/08/17 04:50:08;;;;;;;;;;;;;;;25.70;100.00;99765.06;3038092;19;1926;-53
2022/08/17 04:51:14;;;;;;;;;;;;;;;25.85;100.00;99786.69;3037573;19;1863;-52
2022/08/17 04:52:16;;;;;;;;;;;;;;;25.90;100.00;99795.13;3039428;19;2306;-51
2022/08/17 04:53:41;;;;;;;;;;;;;;;25.70;100.00;99805.22;3040532;19;1833;-51
2022/08/17 04:54:46;;;;;;;;;;;;;;;25.35;100.00;99797.16;3038791;19;1819;-51
2022/08/17 04:55:50;;;;;;;;;;;;;;;25.16;100.00;99784.25;3037977;19;1543;-51
2022/08/17 04:56:54;;;;;;;;;;;;;;;25.07;100.00;99780.88;3037689;19;1938;-51
2022/08/17 04:57:56;;;;;;;;;;;;;;;25.03;100.00;99776.03;3038720;19;1714;-50
2022/08/17 04:59:02;;;;;;;;;;;;;;;24.99;100.00;99769.31;3037121;19;2200;-51
2022/08/17 05:00:05;;;;;;;;;;;;;;;24.99;100.00;99769.31;3037596;19;1659;-50
2022/08/17 05:01:09;;;;;;;;;;;;;;;24.98;100.00;99762.19;3037837;19;1771;-51
2022/08/17 05:02:15;;;;;;;;;;;;;;;24.97;100.00;99755.03;3040393;19;1765;-52
2022/08/17 05:03:17;;;;;;;;;;;;;;;24.95;100.00;99760.69;3032963;19;2312;-50
2022/08/17 05:04:25;;;;;;;;;;;;;;;24.94;100.00;99758.16;3052453;19;1590;-49
2022/08/17 05:05:36;;;;;;;;;;;;;;;24.90;100.00;99754.13;3056829;19;1621;-54
2022/08/17 05:06:41;;;;;;;;;;;;;;;24.89;100.00;99757.88;3055542;19;1705;-52
2022/08/17 05:07:43;;;;;;;;;;;;;;;24.89;100.00;99763.34;3058370;19;1270;-51
2022/08/17 05:08:47;;;;;;;;;;;;;;;24.89;100.00;99757.88;3057759;19;1612;-50
2022/08/17 05:09:49;;;;;;;;;;;;;;;24.90;100.00;99754.97;3057150;19;1495;-53
2022/08/17 05:10:53;;;;;;;;;;;;;;;24.92;100.00;99757.47;3059365;19;1261;-51
2022/08/17 05:12:01;;;;;;;;;;;;;;;24.92;100.00;99762.94;3059134;19;1305;-51
2022/08/17 05:13:10;;;;;;;;;;;;;;;24.94;100.00;99755.44;3057551;19;1741;-51
2022/08/17 05:14:15;;;;;;;;;;;;;;;24.93;100.00;99760.06;3058352;19;1582;-49
2022/08/17 05:15:17;;;;;;;;;;;;;;;24.94;100.00;99761.72;3058070;19;1579;-50
2022/08/17 05:16:23;;;;;;;;;;;;;;;24.96;100.00;99758.81;3053498;19;1667;-50
2022/08/17 05:17:24;;;;;;;;;;;;;;;24.94;100.00;99760.88;3055351;19;1369;-50
2022/08/17 05:18:29;;;;;;;;;;;;;;;24.94;100.00;99755.44;3057688;19;1443;-53
2022/08/17 05:19:34;;;;;;;;;;;;;;;24.95;100.00;99755.22;3055509;19;1874;-48
2022/08/17 05:20:38;;;;;;;;;;;;;;;24.97;100.00;99761.34;3056927;19;1519;-51
2022/08/17 05:21:42;;;;;;;;;;;;;;;25.02;100.00;99763.44;3056692;19;1778;-51
2022/08/17 05:22:49;;;;;;;;;;;;;;;25.04;100.00;99761.34;3057868;19;1838;-50
2022/08/17 05:23:57;;;;;;;;;;;;;;;25.09;100.00;99758.84;3057478;19;991;-50
2022/08/17 05:25:00;;;;;;;;;;;;;;;25.12;100.00;99769.31;3057947;19;1312;-51
2022/08/17 05:26:05;;;;;;;;;;;;;;;25.15;100.00;99768.94;3055384;19;1715;-51
2022/08/17 05:27:10;;;;;;;;;;;;;;;25.21;100.00;99772.75;3056571;19;1521;-51
2022/08/17 05:28:22;;;;;;;;;;;;;;;25.27;100.00;99777.34;3056612;19;1330;-49
2022/08/17 05:29:28;;;;;;;;;;;;;;;25.32;100.00;99783.06;3057283;19;1448;-49
2022/08/17 05:30:39;;;;;;;;;;;;;;;25.29;100.00;99765.19;3058314;19;1736;-51
2022/08/17 05:31:44;;;;;;;;;;;;;;;25.42;100.00;99786.22;3055989;19;1570;-50
2022/08/17 05:32:57;;;;;;;;;;;;;;;25.45;100.00;99796.75;3055517;19;1430;-50
2022/08/17 05:34:02;;;;;;;;;;;;;;;25.51;100.00;99797.78;3057095;19;1251;-51
2022/08/17 05:35:04;;;;;;;;;;;;;;;25.54;100.00;99795.50;3057407;19;2231;-49
2022/08/17 05:36:10;;;;;;;;;;;;;;;25.59;100.00;99800.34;3056461;19;832;-49
2022/08/17 05:37:32;;;;;;;;;;;;;;;25.66;100.00;99790.28;3056566;19;889;-49
2022/08/17 05:38:36;;;;;;;;;;;;;;;25.72;100.00;99797.66;3055968;19;1452;-49
2022/08/17 05:39:38;;;;;;;;;;;;;;;25.80;100.00;99805.63;3056857;19;1864;-50
2022/08/17 05:40:43;;;;;;;;;;;;;;;25.86;100.00;99813.00;3054411;19;1672;-51
2022/08/17 05:41:46;;;;;;;;;;;;;;;25.86;100.00;99799.31;3055301;19;1984;-49
2022/08/17 05:42:51;;;;;;;;;;;;;;;25.95;100.00;99819.94;3057290;19;1019;-52
2022/08/17 05:43:53;;;;;;;;;;;;;;;25.99;100.00;99823.09;3059642;19;1214;-51
2022/08/17 05:45:00;;;;;;;;;;;;;;;25.97;100.00;99812.34;3058073;19;892;-50
2022/08/17 05:46:18;;;;;;;;;;;;;;;26.06;100.00;99832.16;3056811;19;1538;-50
2022/08/17 05:47:20;;;;;;;;;;;;;;;26.07;100.00;99831.09;3058058;19;1855;-50
2022/08/17 05:48:25;;;;;;;;;;;;;;;26.10;100.00;99834.22;3056751;19;1496;-50
2022/08/17 05:49:43;;;;;;;;;;;;;;;26.09;100.00;99832.53;3057407;19;1418;-49
2022/08/17 05:50:49;;;;;;;;;;;;;;;26.07;100.00;99831.94;3055764;19;1842;-51
2022/08/17 05:52:23;;;;;;;;;;;;;;;26.09;100.00;99828.97;3055411;19;1838;-51
2022/08/17 05:53:33;;;;;;;;;;;;;;;26.11;100.00;99835.91;3055875;19;1222;-50
2022/08/17 05:54:45;;;;;;;;;;;;;;;26.15;100.00;99826.25;3056967;19;920;-50
2022/08/17 05:55:50;;;;;;;;;;;;;;;26.18;100.00;99825.84;3058150;19;1611;-50
2022/08/17 05:57:01;;;;;;;;;;;;;;;26.19;100.00;99827.53;3057235;19;1303;-50